createdAt,value
2017-07-11T00:00:39.785Z,22.35
2017-07-11T00:01:20.300Z,22.4
2017-07-11T00:02:00.762Z,22.45
2017-07-11T00:02:41.261Z,22.57
2017-07-11T00:03:21.753Z,22.45
2017-07-11T00:04:02.282Z,22.36
2017-07-11T00:04:42.766Z,22.3
2017-07-11T00:05:23.270Z,22.42
2017-07-11T00:06:03.742Z,22.43
2017-07-11T00:06:44.254Z,22.43
2017-07-11T00:07:24.778Z,22.31
2017-07-11T00:08:05.294Z,22.31
2017-07-11T00:08:45.774Z,22.25
2017-07-11T00:09:26.307Z,22.36
2017-07-11T00:10:06.806Z,22.33
2017-07-11T00:10:47.309Z,22.45
2017-07-11T00:11:27.793Z,22.49
2017-07-11T00:12:08.343Z,22.43
2017-07-11T00:12:48.817Z,22.45
2017-07-11T00:13:29.318Z,22.46
2017-07-11T00:14:09.769Z,22.36
2017-07-11T00:14:50.302Z,22.35
2017-07-11T00:15:30.806Z,22.18
2017-07-11T00:16:11.279Z,22.27
2017-07-11T00:16:51.761Z,22.28
2017-07-11T00:17:32.247Z,22.3
2017-07-11T00:18:12.750Z,22.33
2017-07-11T00:18:53.292Z,22.17
2017-07-11T00:19:33.774Z,22.31
2017-07-11T00:20:15.647Z,22.37
2017-07-11T00:20:55.714Z,22.24
2017-07-11T00:21:36.208Z,22.3
2017-07-11T00:22:16.738Z,22.35
2017-07-11T00:22:57.197Z,22.43
2017-07-11T00:23:37.705Z,22.51
2017-07-11T00:24:18.205Z,22.49
2017-07-11T00:24:58.715Z,22.4
2017-07-11T00:25:43.623Z,22.55
2017-07-11T00:26:25.855Z,22.51
2017-07-11T00:27:06.328Z,22.31
2017-07-11T00:27:46.839Z,22.35
2017-07-11T00:28:27.343Z,22.21
2017-07-11T00:29:07.812Z,22.18
2017-07-11T00:29:48.306Z,22.22
2017-07-11T00:30:28.800Z,22.1
2017-07-11T00:31:09.354Z,22.02
2017-07-11T00:31:49.846Z,22.12
2017-07-11T00:32:30.361Z,22.18
2017-07-11T00:33:10.895Z,22.24
2017-07-11T00:33:51.358Z,22.31
2017-07-11T00:34:31.829Z,22.35
2017-07-11T00:35:12.333Z,22.4
2017-07-11T00:35:52.801Z,22.33
2017-07-11T00:36:33.313Z,22.28
2017-07-11T00:37:13.785Z,22.43
2017-07-11T00:37:54.388Z,22.43
2017-07-11T00:38:34.923Z,22.36
2017-07-11T00:39:15.409Z,22.36
2017-07-11T00:39:55.902Z,22.28
2017-07-11T00:40:36.442Z,22.33
2017-07-11T00:41:16.926Z,22.31
2017-07-11T00:41:57.371Z,22.31
2017-07-11T00:42:37.887Z,22.2
2017-07-11T00:43:18.379Z,22.22
2017-07-11T00:43:58.859Z,22.14
2017-07-11T00:44:39.365Z,22.03
2017-07-11T00:45:19.870Z,22.02
2017-07-11T00:46:00.388Z,22.02
2017-07-11T00:46:40.951Z,22.02
2017-07-11T00:47:21.445Z,22.17
2017-07-11T00:48:01.974Z,22
2017-07-11T00:48:42.464Z,22.07
2017-07-11T00:49:22.980Z,22.18
2017-07-11T00:50:03.506Z,22.25
2017-07-11T00:50:43.933Z,22.28
2017-07-11T00:51:24.468Z,22.2
2017-07-11T00:52:04.964Z,22.17
2017-07-11T00:52:45.541Z,22.28
2017-07-11T00:53:26.010Z,22.24
2017-07-11T00:54:06.538Z,22.33
2017-07-11T00:54:46.997Z,22.31
2017-07-11T00:55:27.478Z,22.31
2017-07-11T00:56:07.981Z,22.3
2017-07-11T00:56:48.489Z,22.28
2017-07-11T00:57:28.975Z,22.15
2017-07-11T00:58:09.493Z,22.03
2017-07-11T01:00:07.695Z,21.99
2017-07-11T01:02:20.971Z,21.94
2017-07-11T01:03:01.465Z,21.83
2017-07-11T01:03:41.970Z,21.91
2017-07-11T01:04:22.508Z,21.86
2017-07-11T01:05:02.976Z,21.82
2017-07-11T01:05:43.476Z,21.8
2017-07-11T01:06:24.014Z,21.88
2017-07-11T01:07:04.524Z,21.88
2017-07-11T01:07:45.039Z,21.8
2017-07-11T01:08:25.561Z,21.99
2017-07-11T01:09:06.064Z,21.74
2017-07-11T01:09:46.591Z,21.92
2017-07-11T01:10:27.121Z,21.94
2017-07-11T01:11:07.613Z,21.83
2017-07-11T01:11:48.119Z,21.86
2017-07-11T01:12:28.643Z,21.79
2017-07-11T01:13:09.141Z,21.88
2017-07-11T01:13:49.632Z,21.75
2017-07-11T01:14:30.188Z,21.64
2017-07-11T01:15:10.694Z,21.61
2017-07-11T01:15:51.220Z,21.5
2017-07-11T01:16:31.708Z,21.58
2017-07-11T01:17:12.234Z,21.61
2017-07-11T01:17:52.723Z,21.62
2017-07-11T01:18:33.235Z,21.64
2017-07-11T01:19:13.734Z,21.49
2017-07-11T01:19:54.257Z,21.47
2017-07-11T01:21:47.364Z,21.65
2017-07-11T01:22:27.918Z,21.58
2017-07-11T01:23:08.474Z,21.58
2017-07-11T01:23:48.963Z,21.64
2017-07-11T01:24:29.558Z,21.69
2017-07-11T01:25:10.076Z,21.65
2017-07-11T01:25:50.582Z,21.69
2017-07-11T01:26:31.070Z,21.72
2017-07-11T01:27:11.612Z,21.67
2017-07-11T01:27:52.231Z,21.77
2017-07-11T01:28:32.740Z,21.68
2017-07-11T01:29:13.278Z,21.67
2017-07-11T01:29:53.742Z,21.67
2017-07-11T01:30:34.259Z,21.67
2017-07-11T01:31:14.768Z,21.65
2017-07-11T01:31:55.282Z,21.67
2017-07-11T01:32:35.784Z,21.8
2017-07-11T01:33:16.271Z,21.61
2017-07-11T01:33:56.805Z,21.31
2017-07-11T01:34:37.280Z,21.44
2017-07-11T01:35:17.795Z,21.47
2017-07-11T01:35:58.330Z,21.43
2017-07-11T01:36:38.805Z,21.44
2017-07-11T01:37:19.321Z,21.61
2017-07-11T01:37:59.828Z,21.62
2017-07-11T01:38:40.324Z,21.67
2017-07-11T01:39:20.830Z,21.65
2017-07-11T01:40:01.353Z,21.58
2017-07-11T01:40:41.832Z,21.47
2017-07-11T01:41:23.202Z,21.47
2017-07-11T01:42:03.743Z,21.46
2017-07-11T01:42:44.215Z,21.54
2017-07-11T01:43:24.716Z,21.61
2017-07-11T01:44:05.226Z,21.5
2017-07-11T01:44:45.743Z,21.5
2017-07-11T01:45:26.250Z,21.46
2017-07-11T01:46:06.789Z,21.43
2017-07-11T01:46:47.272Z,21.5
2017-07-11T01:47:27.800Z,21.49
2017-07-11T01:48:08.287Z,21.49
2017-07-11T01:48:48.805Z,21.59
2017-07-11T01:49:29.316Z,21.5
2017-07-11T01:50:09.842Z,21.53
2017-07-11T01:50:50.351Z,21.46
2017-07-11T01:51:30.868Z,21.47
2017-07-11T01:52:11.400Z,21.64
2017-07-11T01:52:51.885Z,21.67
2017-07-11T01:53:32.371Z,21.62
2017-07-11T01:54:12.899Z,21.5
2017-07-11T01:54:53.378Z,21.54
2017-07-11T01:55:33.916Z,21.42
2017-07-11T01:56:14.393Z,21.5
2017-07-11T01:56:54.915Z,21.4
2017-07-11T01:57:35.416Z,21.46
2017-07-11T01:58:15.902Z,21.49
2017-07-11T01:58:56.412Z,21.64
2017-07-11T01:59:36.897Z,21.68
2017-07-11T02:00:17.414Z,21.68
2017-07-11T02:00:57.980Z,21.69
2017-07-11T02:01:38.531Z,21.69
2017-07-11T02:02:19.023Z,21.69
2017-07-11T02:02:59.511Z,21.69
2017-07-11T02:03:40.028Z,21.58
2017-07-11T02:04:20.527Z,21.68
2017-07-11T02:05:01.032Z,21.65
2017-07-11T02:05:41.547Z,21.64
2017-07-11T02:06:22.028Z,21.65
2017-07-11T02:07:02.545Z,21.67
2017-07-11T02:07:43.063Z,21.58
2017-07-11T02:08:23.610Z,21.59
2017-07-11T02:09:04.050Z,21.64
2017-07-11T02:09:44.554Z,21.72
2017-07-11T02:10:25.029Z,21.65
2017-07-11T02:11:05.549Z,21.62
2017-07-11T02:11:46.062Z,21.69
2017-07-11T02:12:26.591Z,21.79
2017-07-11T02:13:07.090Z,21.69
2017-07-11T02:13:47.593Z,21.77
2017-07-11T02:14:28.085Z,21.64
2017-07-11T02:15:08.581Z,21.65
2017-07-11T02:15:49.149Z,21.61
2017-07-11T02:16:29.592Z,21.68
2017-07-11T02:17:10.143Z,21.75
2017-07-11T02:17:50.615Z,21.64
2017-07-11T02:18:31.119Z,21.62
2017-07-11T02:19:11.632Z,21.69
2017-07-11T02:19:52.154Z,21.79
2017-07-11T02:20:32.653Z,21.83
2017-07-11T02:21:13.177Z,21.72
2017-07-11T02:21:53.671Z,21.69
2017-07-11T02:22:34.255Z,21.72
2017-07-11T02:23:14.751Z,21.71
2017-07-11T02:23:55.254Z,21.82
2017-07-11T02:24:35.773Z,21.75
2017-07-11T02:25:16.297Z,21.8
2017-07-11T02:25:56.808Z,21.82
2017-07-11T02:26:37.323Z,21.77
2017-07-11T02:27:17.794Z,21.88
2017-07-11T02:27:58.326Z,21.88
2017-07-11T02:28:38.848Z,21.86
2017-07-11T02:29:19.328Z,21.83
2017-07-11T02:29:59.871Z,21.72
2017-07-11T02:30:40.395Z,21.71
2017-07-11T02:31:20.906Z,21.77
2017-07-11T02:32:01.420Z,21.79
2017-07-11T02:32:41.925Z,21.8
2017-07-11T02:33:22.453Z,21.74
2017-07-11T02:34:02.984Z,21.74
2017-07-11T02:34:43.501Z,21.69
2017-07-11T02:35:24.044Z,21.69
2017-07-11T02:36:04.517Z,21.79
2017-07-11T02:36:45.045Z,21.64
2017-07-11T02:37:25.562Z,21.59
2017-07-11T02:38:06.076Z,21.64
2017-07-11T02:38:46.614Z,21.46
2017-07-11T02:39:27.106Z,21.5
2017-07-11T02:40:07.642Z,21.5
2017-07-11T02:40:48.137Z,21.53
2017-07-11T02:41:28.621Z,21.5
2017-07-11T02:42:09.124Z,21.49
2017-07-11T02:42:49.637Z,21.56
2017-07-11T02:43:30.160Z,21.54
2017-07-11T02:44:10.677Z,21.64
2017-07-11T02:44:51.177Z,21.62
2017-07-11T02:45:31.662Z,21.61
2017-07-11T02:46:12.206Z,21.62
2017-07-11T02:46:52.710Z,21.64
2017-07-11T02:47:33.218Z,21.62
2017-07-11T02:48:13.733Z,21.58
2017-07-11T02:48:54.266Z,21.38
2017-07-11T02:49:34.788Z,21.34
2017-07-11T02:50:15.289Z,21.29
2017-07-11T02:50:55.821Z,21.25
2017-07-11T02:51:36.343Z,21.32
2017-07-11T02:52:16.853Z,21.42
2017-07-11T02:52:57.359Z,21.34
2017-07-11T02:53:37.858Z,21.34
2017-07-11T02:54:18.377Z,21.34
2017-07-11T02:54:58.861Z,21.37
2017-07-11T02:55:39.379Z,21.38
2017-07-11T02:56:19.903Z,21.56
2017-07-11T02:57:00.440Z,21.47
2017-07-11T02:57:40.970Z,21.49
2017-07-11T02:58:21.491Z,21.47
2017-07-11T02:59:01.971Z,21.49
2017-07-11T02:59:42.451Z,21.64
2017-07-11T03:00:22.967Z,21.64
2017-07-11T03:01:03.469Z,21.62
2017-07-11T03:01:43.949Z,21.52
2017-07-11T03:02:24.448Z,21.37
2017-07-11T03:03:04.942Z,21.35
2017-07-11T03:03:45.426Z,21.22
2017-07-11T03:04:25.943Z,21.29
2017-07-11T03:05:06.439Z,21.19
2017-07-11T03:05:46.970Z,21.16
2017-07-11T03:06:27.455Z,21.24
2017-07-11T03:07:07.965Z,21.17
2017-07-11T03:07:48.494Z,21.22
2017-07-11T03:08:29.011Z,21.16
2017-07-11T03:09:09.542Z,21.22
2017-07-11T03:09:50.056Z,21.1
2017-07-11T03:10:30.563Z,21.09
2017-07-11T03:11:11.080Z,21.04
2017-07-11T03:11:51.585Z,21.04
2017-07-11T03:12:32.112Z,21.07
2017-07-11T03:13:12.642Z,20.99
2017-07-11T03:13:53.160Z,20.97
2017-07-11T03:14:33.621Z,20.98
2017-07-11T03:15:14.152Z,20.92
2017-07-11T03:15:54.724Z,20.89
2017-07-11T03:16:35.326Z,21.03
2017-07-11T03:17:15.811Z,21.03
2017-07-11T03:17:56.297Z,21.12
2017-07-11T03:18:36.843Z,21.09
2017-07-11T03:19:17.357Z,20.98
2017-07-11T03:19:57.891Z,21.07
2017-07-11T03:20:38.448Z,21.01
2017-07-11T03:21:18.964Z,21.04
2017-07-11T03:21:59.427Z,21.07
2017-07-11T03:22:39.935Z,21.07
2017-07-11T03:23:20.460Z,21.04
2017-07-11T03:24:00.961Z,20.97
2017-07-11T03:24:41.487Z,21.06
2017-07-11T03:25:22.055Z,21.06
2017-07-11T03:26:02.582Z,21.09
2017-07-11T03:26:43.063Z,21.19
2017-07-11T03:27:23.567Z,21.13
2017-07-11T03:28:04.076Z,21.22
2017-07-11T03:28:44.580Z,21.19
2017-07-11T03:29:25.080Z,21.24
2017-07-11T03:30:05.612Z,21.4
2017-07-11T03:30:46.121Z,21.22
2017-07-11T03:31:26.590Z,21.19
2017-07-11T03:33:04.996Z,21.22
2017-07-11T03:33:45.522Z,21.24
2017-07-11T03:34:26.031Z,21.32
2017-07-11T03:35:06.546Z,21.25
2017-07-11T03:35:47.059Z,21.21
2017-07-11T03:36:27.585Z,21.14
2017-07-11T03:37:08.111Z,21.12
2017-07-11T03:37:48.637Z,21.13
2017-07-11T03:38:29.136Z,21.03
2017-07-11T03:39:09.660Z,21.16
2017-07-11T03:39:50.195Z,21.24
2017-07-11T03:40:30.690Z,21.22
2017-07-11T03:41:11.210Z,21.29
2017-07-11T03:41:51.731Z,21.27
2017-07-11T03:42:32.240Z,21.31
2017-07-11T03:43:12.755Z,21.34
2017-07-11T03:43:53.276Z,21.28
2017-07-11T03:44:33.763Z,21.34
2017-07-11T03:45:14.274Z,21.16
2017-07-11T03:45:54.776Z,21.17
2017-07-11T03:46:35.296Z,21.17
2017-07-11T03:47:15.800Z,21.19
2017-07-11T03:47:56.299Z,21.06
2017-07-11T03:48:36.807Z,21.12
2017-07-11T03:49:17.306Z,21.1
2017-07-11T03:49:57.810Z,21.16
2017-07-11T03:50:38.390Z,21.06
2017-07-11T03:51:18.887Z,21.16
2017-07-11T03:51:59.392Z,21.13
2017-07-11T03:52:39.903Z,21.09
2017-07-11T03:53:20.427Z,21.17
2017-07-11T03:54:00.935Z,21.1
2017-07-11T03:54:41.439Z,21.09
2017-07-11T03:55:21.975Z,21.07
2017-07-11T03:56:02.506Z,21.06
2017-07-11T03:56:42.995Z,21.17
2017-07-11T03:57:23.528Z,21.17
2017-07-11T03:58:04.037Z,21.13
2017-07-11T03:58:44.559Z,21.22
2017-07-11T03:59:25.070Z,21.34
2017-07-11T04:00:05.574Z,21.32
2017-07-11T04:00:46.099Z,21.34
2017-07-11T04:01:26.599Z,21.35
2017-07-11T04:02:07.122Z,21.27
2017-07-11T04:02:47.620Z,21.27
2017-07-11T04:03:28.096Z,21.16
2017-07-11T04:04:08.615Z,21.03
2017-07-11T04:04:49.100Z,20.92
2017-07-11T04:05:29.585Z,20.99
2017-07-11T04:06:10.096Z,21.07
2017-07-11T04:06:50.610Z,20.91
2017-07-11T04:07:31.121Z,21.03
2017-07-11T04:08:11.641Z,21.1
2017-07-11T04:08:52.169Z,21.17
2017-07-11T04:09:32.678Z,21.04
2017-07-11T04:10:13.194Z,21.14
2017-07-11T04:10:53.705Z,21.25
2017-07-11T04:11:34.301Z,21.16
2017-07-11T04:12:14.772Z,21.17
2017-07-11T04:12:55.300Z,21.12
2017-07-11T04:13:35.823Z,21.16
2017-07-11T04:14:16.335Z,21.13
2017-07-11T04:14:56.851Z,21.22
2017-07-11T04:15:37.353Z,21.24
2017-07-11T04:16:17.875Z,21.34
2017-07-11T04:16:58.388Z,21.35
2017-07-11T04:17:38.898Z,21.35
2017-07-11T04:18:19.451Z,21.34
2017-07-11T04:18:59.937Z,21.31
2017-07-11T04:19:40.441Z,21.28
2017-07-11T04:20:20.965Z,21.34
2017-07-11T04:21:01.474Z,21.38
2017-07-11T04:21:41.990Z,21.52
2017-07-11T04:22:22.491Z,21.49
2017-07-11T04:23:03.014Z,21.62
2017-07-11T04:23:43.510Z,21.68
2017-07-11T04:24:24.024Z,21.74
2017-07-11T04:25:04.538Z,21.75
2017-07-11T04:25:45.079Z,21.83
2017-07-11T04:26:25.591Z,21.8
2017-07-11T04:27:06.099Z,21.9
2017-07-11T04:27:46.612Z,21.77
2017-07-11T04:28:27.143Z,21.75
2017-07-11T04:29:07.665Z,21.84
2017-07-11T04:29:48.179Z,21.88
2017-07-11T04:30:28.712Z,21.91
2017-07-11T04:31:09.189Z,21.91
2017-07-11T04:31:49.738Z,21.64
2017-07-11T04:32:30.238Z,21.54
2017-07-11T04:33:10.766Z,21.58
2017-07-11T04:33:51.295Z,21.52
2017-07-11T04:34:31.814Z,21.46
2017-07-11T04:35:12.327Z,21.5
2017-07-11T04:35:52.850Z,21.56
2017-07-11T04:36:33.369Z,21.5
2017-07-11T04:37:13.893Z,21.56
2017-07-11T04:37:54.415Z,21.59
2017-07-11T04:38:34.925Z,21.65
2017-07-11T04:39:15.422Z,21.49
2017-07-11T04:39:55.922Z,21.4
2017-07-11T04:40:36.429Z,21.42
2017-07-11T04:41:16.930Z,21.31
2017-07-11T04:41:57.422Z,21.28
2017-07-11T04:42:37.919Z,21.25
2017-07-11T04:43:18.412Z,21.14
2017-07-11T04:43:58.925Z,21.29
2017-07-11T04:44:39.425Z,21.25
2017-07-11T04:45:19.928Z,21.22
2017-07-11T04:46:00.481Z,21.24
2017-07-11T04:46:40.973Z,21.14
2017-07-11T04:47:21.442Z,21.17
2017-07-11T04:48:01.971Z,21.34
2017-07-11T04:48:42.482Z,21.35
2017-07-11T04:49:22.929Z,21.14
2017-07-11T04:50:03.422Z,21.25
2017-07-11T04:50:43.897Z,21.24
2017-07-11T04:51:24.413Z,21.28
2017-07-11T04:52:04.973Z,21.14
2017-07-11T04:52:45.504Z,21.16
2017-07-11T04:53:25.978Z,21.27
2017-07-11T04:54:06.509Z,21.16
2017-07-11T04:54:47.015Z,21.17
2017-07-11T04:55:27.520Z,21.14
2017-07-11T04:56:08.019Z,21.16
2017-07-11T04:56:48.507Z,21.19
2017-07-11T04:57:28.973Z,21.17
2017-07-11T04:58:09.506Z,21.14
2017-07-11T04:58:49.998Z,21.19
2017-07-11T04:59:30.476Z,21.19
2017-07-11T05:00:10.979Z,21.29
2017-07-11T05:00:51.464Z,21.31
2017-07-11T05:01:32.011Z,21.28
2017-07-11T05:02:12.484Z,21.16
2017-07-11T05:02:53.074Z,21.16
2017-07-11T05:03:33.499Z,21.12
2017-07-11T05:04:14.029Z,21.09
2017-07-11T05:04:54.544Z,21.1
2017-07-11T05:05:35.055Z,21.17
2017-07-11T05:06:15.585Z,21.19
2017-07-11T05:06:56.079Z,21.25
2017-07-11T05:07:36.659Z,21.19
2017-07-11T05:08:17.167Z,21.14
2017-07-11T05:08:57.656Z,21.09
2017-07-11T05:09:38.168Z,21.19
2017-07-11T05:10:18.682Z,21.12
2017-07-11T05:10:59.193Z,21.14
2017-07-11T05:11:39.740Z,21.03
2017-07-11T05:12:20.245Z,21.04
2017-07-11T05:13:00.755Z,21.09
2017-07-11T05:13:41.280Z,21.1
2017-07-11T05:14:21.826Z,21.19
2017-07-11T05:15:02.333Z,21.13
2017-07-11T05:15:42.855Z,21.13
2017-07-11T05:16:23.329Z,21.13
2017-07-11T05:17:03.823Z,21.19
2017-07-11T05:17:44.364Z,21.32
2017-07-11T05:18:24.809Z,21.29
2017-07-11T05:19:05.296Z,21.22
2017-07-11T05:19:45.803Z,21.35
2017-07-11T05:20:26.305Z,21.34
2017-07-11T05:21:06.807Z,21.67
2017-07-11T05:21:47.373Z,21.59
2017-07-11T05:22:27.954Z,21.46
2017-07-11T05:23:08.511Z,21.72
2017-07-11T05:23:49.037Z,21.91
2017-07-11T05:24:29.566Z,22.03
2017-07-11T05:25:10.085Z,22.06
2017-07-11T05:25:50.607Z,22
2017-07-11T05:26:31.115Z,22.15
2017-07-11T05:27:11.679Z,22.12
2017-07-11T05:27:52.196Z,22.22
2017-07-11T05:28:32.721Z,22.18
2017-07-11T05:29:13.249Z,22.37
2017-07-11T05:29:53.798Z,22.3
2017-07-11T05:30:34.285Z,22.47
2017-07-11T05:31:14.808Z,22.31
2017-07-11T05:31:55.338Z,22.52
2017-07-11T05:32:35.857Z,22.65
2017-07-11T05:33:16.388Z,22.65
2017-07-11T05:33:56.917Z,22.77
2017-07-11T05:34:37.535Z,23
2017-07-11T05:35:18.061Z,22.98
2017-07-11T05:35:58.562Z,22.92
2017-07-11T05:36:39.071Z,23.15
2017-07-11T05:37:19.586Z,23.13
2017-07-11T05:38:00.150Z,23.07
2017-07-11T05:38:40.646Z,23
2017-07-11T05:39:21.157Z,23.13
2017-07-11T05:40:04.210Z,23.02
2017-07-11T05:40:45.706Z,23.07
2017-07-11T05:41:26.715Z,23.04
2017-07-11T05:42:06.406Z,23.04
2017-07-11T05:42:46.936Z,22.95
2017-07-11T05:43:27.465Z,22.85
2017-07-11T05:44:07.956Z,22.97
2017-07-11T05:44:49.911Z,23.05
2017-07-11T05:45:30.441Z,23.15
2017-07-11T05:46:11.527Z,23.13
2017-07-11T05:46:52.164Z,23.07
2017-07-11T05:47:33.088Z,23.15
2017-07-11T05:48:13.793Z,23.17
2017-07-11T05:48:54.326Z,23.1
2017-07-11T05:49:34.799Z,23.15
2017-07-11T05:50:15.301Z,23.17
2017-07-11T05:50:55.889Z,23.22
2017-07-11T05:51:36.420Z,23.13
2017-07-11T05:52:16.922Z,23.17
2017-07-11T05:52:57.427Z,23.13
2017-07-11T05:53:37.946Z,23.13
2017-07-11T05:54:18.441Z,23.13
2017-07-11T05:54:58.961Z,23.13
2017-07-11T05:55:39.481Z,23.25
2017-07-11T05:56:19.981Z,23.31
2017-07-11T05:57:00.493Z,23.25
2017-07-11T05:57:40.976Z,23.31
2017-07-11T05:58:21.474Z,23.35
2017-07-11T05:59:01.927Z,23.43
2017-07-11T05:59:42.471Z,23.58
2017-07-11T06:00:23.003Z,23.76
2017-07-11T06:01:03.459Z,24.08
2017-07-11T06:01:44.054Z,24.25
2017-07-11T06:02:24.487Z,24.52
2017-07-11T06:03:04.975Z,24.67
2017-07-11T06:03:45.469Z,24.87
2017-07-11T06:04:25.981Z,24.88
2017-07-11T06:05:06.495Z,25.1
2017-07-11T06:05:47.005Z,25.13
2017-07-11T06:06:27.538Z,25.09
2017-07-11T06:07:08.038Z,25.1
2017-07-11T06:07:48.506Z,25.17
2017-07-11T06:08:29.075Z,25.39
2017-07-11T06:09:09.607Z,25.52
2017-07-11T06:09:50.180Z,25.54
2017-07-11T06:10:30.613Z,25.64
2017-07-11T06:11:11.126Z,25.6
2017-07-11T06:11:51.620Z,25.65
2017-07-11T06:12:32.142Z,25.8
2017-07-11T06:13:12.662Z,25.9
2017-07-11T06:13:53.169Z,25.92
2017-07-11T06:14:35.575Z,26.01
2017-07-11T06:15:16.746Z,26.12
2017-07-11T06:15:57.291Z,26.15
2017-07-11T06:16:37.761Z,26.23
2017-07-11T06:17:18.294Z,26.33
2017-07-11T06:17:58.814Z,26.35
2017-07-11T06:18:39.330Z,26.32
2017-07-11T06:19:19.862Z,26.36
2017-07-11T06:20:00.323Z,26.39
2017-07-11T06:20:40.844Z,26.36
2017-07-11T06:21:21.346Z,26.44
2017-07-11T06:22:01.853Z,26.44
2017-07-11T06:22:42.357Z,26.4
2017-07-11T06:23:22.870Z,26.47
2017-07-11T06:24:03.394Z,26.4
2017-07-11T06:24:43.856Z,26.35
2017-07-11T06:25:24.370Z,26.4
2017-07-11T06:26:04.884Z,26.39
2017-07-11T06:26:45.425Z,26.52
2017-07-11T06:27:25.883Z,26.32
2017-07-11T06:28:06.412Z,26.2
2017-07-11T06:28:46.936Z,26.25
2017-07-11T06:29:27.423Z,26.05
2017-07-11T06:30:07.906Z,26.01
2017-07-11T06:30:48.416Z,25.8
2017-07-11T06:31:28.942Z,25.8
2017-07-11T06:32:09.426Z,25.65
2017-07-11T06:32:49.928Z,25.67
2017-07-11T06:33:30.408Z,25.65
2017-07-11T06:34:10.933Z,25.69
2017-07-11T06:34:51.444Z,25.55
2017-07-11T06:35:31.971Z,25.45
2017-07-11T06:36:12.464Z,25.2
2017-07-11T06:36:52.926Z,25.23
2017-07-11T06:37:33.480Z,25.17
2017-07-11T06:38:13.954Z,25.28
2017-07-11T06:38:54.413Z,25.64
2017-07-11T06:39:34.919Z,25.83
2017-07-11T06:40:15.446Z,26.05
2017-07-11T06:40:55.971Z,25.97
2017-07-11T06:41:36.486Z,25.8
2017-07-11T06:42:16.984Z,25.77
2017-07-11T06:42:57.531Z,25.76
2017-07-11T06:43:38.013Z,25.67
2017-07-11T06:44:18.543Z,25.72
2017-07-11T06:44:59.088Z,25.97
2017-07-11T06:45:39.596Z,25.95
2017-07-11T06:46:20.108Z,25.76
2017-07-11T06:47:00.606Z,25.77
2017-07-11T06:47:41.194Z,25.91
2017-07-11T06:48:21.718Z,25.77
2017-07-11T06:49:02.234Z,25.61
2017-07-11T06:49:42.744Z,25.54
2017-07-11T06:50:23.279Z,25.38
2017-07-11T06:51:03.791Z,25.46
2017-07-11T06:51:44.296Z,25.46
2017-07-11T06:52:24.822Z,25.43
2017-07-11T06:53:05.338Z,25.39
2017-07-11T06:53:45.866Z,25.36
2017-07-11T06:54:26.433Z,25.18
2017-07-11T06:55:06.916Z,25.25
2017-07-11T06:55:47.435Z,25.27
2017-07-11T06:56:27.945Z,25.28
2017-07-11T06:57:08.470Z,25.46
2017-07-11T06:57:49.003Z,25.67
2017-07-11T06:58:29.500Z,25.9
2017-07-11T06:59:10.037Z,25.95
2017-07-11T06:59:50.548Z,26.13
2017-07-11T07:00:31.063Z,25.99
2017-07-11T07:01:11.593Z,25.91
2017-07-11T07:01:52.127Z,25.91
2017-07-11T07:02:32.627Z,26.05
2017-07-11T07:03:13.094Z,25.8
2017-07-11T07:03:53.583Z,25.79
2017-07-11T07:04:34.124Z,25.72
2017-07-11T07:05:14.685Z,25.67
2017-07-11T07:05:55.191Z,25.85
2017-07-11T07:06:35.708Z,25.99
2017-07-11T07:07:16.207Z,25.79
2017-07-11T07:07:56.719Z,25.87
2017-07-11T07:08:37.303Z,25.87
2017-07-11T07:09:17.842Z,25.75
2017-07-11T07:09:58.334Z,25.8
2017-07-11T07:10:38.848Z,25.94
2017-07-11T07:11:19.359Z,26.29
2017-07-11T07:11:59.894Z,26.4
2017-07-11T07:12:40.422Z,26.37
2017-07-11T07:13:20.923Z,26.39
2017-07-11T07:14:01.441Z,26.26
2017-07-11T07:14:41.934Z,26.45
2017-07-11T07:15:22.500Z,26.3
2017-07-11T07:16:02.962Z,26.2
2017-07-11T07:16:43.479Z,26.17
2017-07-11T07:17:23.986Z,26.1
2017-07-11T07:18:04.491Z,26.18
2017-07-11T07:18:44.968Z,26.05
2017-07-11T07:19:25.471Z,26.12
2017-07-11T07:20:05.986Z,26.18
2017-07-11T07:20:46.459Z,26.13
2017-07-11T07:21:26.945Z,26.1
2017-07-11T07:22:07.460Z,26.05
2017-07-11T07:22:48.095Z,26.02
2017-07-11T07:23:28.634Z,26.02
2017-07-11T07:24:09.143Z,26.05
2017-07-11T07:24:49.614Z,25.9
2017-07-11T07:25:30.145Z,25.91
2017-07-11T07:26:10.624Z,25.99
2017-07-11T07:26:51.155Z,26.09
2017-07-11T07:27:31.649Z,26.01
2017-07-11T07:28:12.162Z,26.05
2017-07-11T07:28:52.642Z,26.06
2017-07-11T07:29:33.182Z,25.99
2017-07-11T07:30:13.681Z,25.77
2017-07-11T07:30:54.155Z,25.88
2017-07-11T07:31:34.798Z,25.79
2017-07-11T07:32:15.304Z,25.77
2017-07-11T07:32:55.825Z,25.76
2017-07-11T07:33:36.334Z,25.64
2017-07-11T07:34:16.830Z,25.8
2017-07-11T07:34:57.339Z,25.75
2017-07-11T07:35:37.856Z,25.88
2017-07-11T07:36:18.438Z,25.9
2017-07-11T07:36:58.975Z,25.97
2017-07-11T07:37:39.517Z,25.79
2017-07-11T07:38:20.027Z,25.91
2017-07-11T07:39:00.568Z,25.97
2017-07-11T07:39:41.048Z,25.98
2017-07-11T07:40:21.545Z,25.88
2017-07-11T07:41:02.038Z,25.67
2017-07-11T07:41:42.551Z,25.77
2017-07-11T07:42:23.064Z,25.94
2017-07-11T07:43:03.578Z,26.1
2017-07-11T07:43:44.087Z,26.26
2017-07-11T07:44:24.552Z,26.33
2017-07-11T07:45:05.085Z,26.39
2017-07-11T07:45:45.596Z,26.33
2017-07-11T07:46:26.060Z,26.36
2017-07-11T07:47:06.584Z,26.43
2017-07-11T07:47:47.098Z,26.4
2017-07-11T07:48:27.596Z,26.39
2017-07-11T07:49:08.091Z,26.44
2017-07-11T07:49:48.586Z,26.37
2017-07-11T07:50:29.110Z,26.18
2017-07-11T07:51:09.590Z,26.33
2017-07-11T07:51:50.091Z,26.23
2017-07-11T07:52:30.640Z,26.37
2017-07-11T07:53:11.165Z,26.35
2017-07-11T07:53:51.612Z,26.5
2017-07-11T07:54:32.129Z,26.58
2017-07-11T07:55:12.666Z,26.58
2017-07-11T07:55:53.160Z,26.6
2017-07-11T07:56:33.651Z,26.65
2017-07-11T07:57:14.211Z,26.77
2017-07-11T07:57:54.686Z,26.8
2017-07-11T07:58:35.164Z,26.81
2017-07-11T07:59:15.680Z,26.84
2017-07-11T07:59:56.383Z,26.95
2017-07-11T08:00:36.883Z,26.91
2017-07-11T08:01:17.369Z,26.87
2017-07-11T08:01:57.901Z,26.75
2017-07-11T08:02:38.409Z,26.77
2017-07-11T08:03:18.889Z,26.67
2017-07-11T08:03:59.401Z,26.77
2017-07-11T08:04:39.928Z,26.8
2017-07-11T08:05:20.448Z,26.55
2017-07-11T08:06:00.952Z,26.37
2017-07-11T08:06:41.441Z,26.39
2017-07-11T08:07:21.944Z,26.25
2017-07-11T08:08:02.464Z,26.05
2017-07-11T08:08:43.025Z,26.17
2017-07-11T08:09:23.476Z,26.23
2017-07-11T08:10:04.002Z,26.26
2017-07-11T08:10:44.472Z,26.28
2017-07-11T08:11:25.014Z,26.3
2017-07-11T08:12:05.494Z,26.15
2017-07-11T08:12:45.992Z,26.09
2017-07-11T08:13:26.499Z,25.99
2017-07-11T08:14:07.013Z,25.97
2017-07-11T08:14:47.514Z,25.73
2017-07-11T08:15:27.999Z,25.7
2017-07-11T08:16:08.473Z,25.73
2017-07-11T08:16:49.028Z,25.8
2017-07-11T08:17:29.507Z,25.76
2017-07-11T08:18:10.012Z,25.76
2017-07-11T08:18:50.558Z,25.67
2017-07-11T08:19:31.011Z,25.65
2017-07-11T08:20:11.539Z,25.7
2017-07-11T08:20:52.024Z,25.57
2017-07-11T08:21:32.541Z,25.51
2017-07-11T08:22:13.112Z,25.64
2017-07-11T08:22:53.600Z,25.54
2017-07-11T08:23:34.085Z,25.61
2017-07-11T08:24:14.564Z,25.47
2017-07-11T08:24:55.100Z,25.3
2017-07-11T08:25:35.597Z,25.54
2017-07-11T08:26:16.127Z,25.6
2017-07-11T08:26:56.615Z,25.73
2017-07-11T08:27:37.108Z,25.72
2017-07-11T08:28:17.607Z,25.75
2017-07-11T08:28:58.106Z,25.91
2017-07-11T08:29:38.642Z,25.9
2017-07-11T08:30:19.181Z,25.83
2017-07-11T08:30:59.674Z,25.92
2017-07-11T08:31:40.198Z,25.94
2017-07-11T08:32:20.734Z,25.94
2017-07-11T08:33:01.241Z,25.85
2017-07-11T08:33:41.775Z,25.82
2017-07-11T08:34:22.297Z,25.79
2017-07-11T08:35:02.809Z,25.75
2017-07-11T08:35:43.468Z,25.76
2017-07-11T08:36:23.965Z,25.65
2017-07-11T08:37:04.477Z,25.77
2017-07-11T08:37:45.003Z,25.76
2017-07-11T08:38:25.517Z,25.77
2017-07-11T08:39:06.065Z,25.77
2017-07-11T08:39:46.541Z,25.87
2017-07-11T08:40:27.035Z,25.79
2017-07-11T08:41:07.560Z,25.75
2017-07-11T08:41:48.082Z,25.9
2017-07-11T08:42:28.634Z,26.01
2017-07-11T08:43:09.132Z,26.17
2017-07-11T08:43:49.662Z,26.13
2017-07-11T08:44:30.146Z,26.17
2017-07-11T08:45:10.648Z,26.23
2017-07-11T08:45:51.156Z,26.25
2017-07-11T08:46:31.668Z,26.36
2017-07-11T08:47:12.165Z,26.33
2017-07-11T08:47:52.688Z,26.2
2017-07-11T08:48:33.204Z,26.23
2017-07-11T08:49:13.729Z,26.23